createdAt,value
2023-03-23T15:59:09.422Z,1.20
2023-03-23T16:02:21.452Z,1.10
2023-03-23T16:05:33.483Z,1.50
2023-03-23T16:11:50.442Z,1.70
2023-03-23T16:15:03.606Z,1.73
2023-03-23T16:18:03.516Z,1.87
2023-03-23T16:21:19.533Z,1.60
2023-03-23T16:24:20.597Z,1.30
2023-03-23T16:27:46.622Z,1.73
2023-03-23T16:30:58.573Z,1.40
2023-03-23T16:34:10.604Z,1.97
2023-03-23T16:37:10.608Z,1.80
2023-03-23T16:40:35.549Z,1.60
2023-03-23T16:43:49.555Z,1.50
2023-03-23T16:47:01.647Z,1.40
2023-03-23T16:50:13.585Z,1.57
2023-03-23T16:53:37.723Z,1.20
2023-03-23T16:56:49.646Z,1.30
2023-03-23T17:00:17.701Z,1.30
2023-03-23T17:03:17.730Z,1.40
2023-03-23T17:06:29.617Z,1.20
2023-03-23T17:09:30.652Z,0.90
2023-03-23T17:12:42.734Z,1.23
2023-03-23T17:15:47.538Z,1.20
2023-03-23T17:19:13.726Z,1.55
2023-03-23T17:22:13.724Z,1.30
2023-03-23T17:25:37.738Z,1.27
2023-03-23T17:28:49.765Z,1.43
2023-03-23T17:32:13.734Z,1.20
2023-03-23T17:35:26.763Z,1.00
2023-03-23T17:38:39.785Z,1.10
2023-03-23T17:41:39.765Z,1.33
2023-03-23T17:44:52.774Z,1.13
2023-03-23T17:47:59.742Z,1.40
2023-03-23T17:51:31.797Z,1.53
2023-03-23T18:03:32.818Z,1.50
2023-03-23T18:06:45.876Z,1.10
2023-03-23T18:09:57.848Z,1.03
2023-03-23T18:13:09.898Z,1.83
2023-03-23T18:16:36.846Z,1.40
2023-03-23T18:19:37.020Z,2.23
2023-03-23T18:23:03.929Z,1.25
2023-03-23T18:26:15.961Z,1.07
2023-03-23T18:29:28.896Z,1.20
2023-03-23T18:32:47.924Z,1.50
2023-03-23T18:36:13.007Z,1.40
2023-03-23T18:39:25.944Z,2.03
2023-03-23T18:42:49.977Z,1.50
2023-03-23T18:45:53.015Z,2.10
2023-03-23T18:49:04.927Z,1.83
2023-03-23T18:52:28.978Z,1.70
2023-03-23T18:55:54.987Z,1.77
2023-03-23T18:59:06.976Z,2.40
2023-03-23T19:02:19.973Z,1.80
2023-03-23T19:05:32.082Z,2.37
2023-03-23T19:08:57.060Z,1.73
2023-03-23T19:12:11.056Z,1.87
2023-03-23T19:15:23.043Z,2.03
2023-03-23T19:18:23.106Z,1.70
2023-03-23T19:21:36.039Z,2.03
2023-03-23T19:24:36.033Z,1.87
2023-03-23T19:31:04.071Z,1.87
2023-03-23T19:34:32.160Z,1.83
2023-03-23T19:40:49.827Z,1.97
2023-03-23T19:43:48.218Z,2.10
2023-03-23T19:47:04.141Z,2.20
2023-03-23T19:50:04.246Z,1.93
2023-03-23T19:53:20.248Z,2.20
2023-03-23T19:56:35.273Z,2.43
2023-03-23T20:00:02.184Z,1.97
2023-03-23T20:03:17.242Z,1.90
2023-03-23T20:06:29.813Z,2.00
2023-03-23T20:09:41.216Z,1.93
2023-03-23T20:12:49.186Z,1.87
2023-03-23T20:16:18.256Z,2.20
2023-03-23T20:19:18.250Z,2.20
2023-03-23T20:22:34.252Z,2.63
2023-03-23T20:25:34.247Z,1.80
2023-03-23T20:28:58.377Z,1.73
2023-03-23T20:32:16.347Z,2.13
2023-03-23T20:35:29.323Z,1.93
2023-03-23T20:38:29.289Z,2.15
2023-03-23T20:41:41.366Z,2.43
2023-03-23T20:44:53.266Z,1.95
2023-03-23T20:48:19.377Z,2.10
2023-03-23T20:51:31.334Z,2.17
2023-03-23T20:54:55.353Z,1.70
2023-03-23T20:57:55.406Z,2.05
2023-03-23T21:01:19.418Z,2.05
2023-03-23T21:04:33.411Z,1.73
2023-03-23T21:07:45.483Z,2.10
2023-03-23T21:10:57.351Z,2.10
2023-03-23T21:14:09.554Z,2.10
2023-03-23T21:17:22.409Z,1.87
2023-03-23T21:20:56.421Z,2.10
2023-03-23T21:24:08.440Z,2.20
2023-03-23T21:27:20.499Z,1.97
2023-03-23T21:30:27.482Z,2.33
2023-03-23T21:33:55.455Z,2.60
2023-03-23T21:37:09.499Z,2.47
2023-03-23T21:40:35.533Z,1.75
2023-03-23T21:43:50.490Z,2.43
2023-03-23T21:50:06.586Z,2.40
2023-03-23T21:53:32.548Z,1.60
2023-03-23T22:02:34.706Z,1.75
2023-03-23T22:05:59.581Z,2.30
2023-03-23T22:09:13.533Z,2.27
2023-03-23T22:12:25.607Z,2.20
2023-03-23T22:15:37.579Z,2.10
2023-03-23T22:19:02.651Z,2.70
2023-03-23T22:22:02.619Z,2.67
2023-03-23T22:25:28.666Z,2.50
2023-03-23T22:28:28.708Z,2.43
2023-03-23T22:34:40.698Z,2.17
2023-03-23T22:38:04.646Z,2.47
2023-03-23T22:41:21.727Z,2.30
2023-03-23T22:44:33.690Z,2.87
2023-03-23T22:47:33.720Z,2.35
2023-03-23T22:50:45.897Z,2.27
2023-03-23T22:53:45.852Z,2.40
2023-03-23T22:57:12.774Z,2.23
2023-03-23T23:00:27.738Z,2.37
2023-03-23T23:03:51.817Z,2.30
2023-03-23T23:06:57.645Z,2.17
2023-03-23T23:10:04.791Z,2.27
2023-03-23T23:13:18.899Z,2.20
2023-03-23T23:16:51.911Z,1.83
2023-03-23T23:19:51.804Z,1.95
2023-03-23T23:23:16.787Z,1.83
2023-03-23T23:26:28.807Z,1.83
2023-03-23T23:29:54.816Z,2.17
2023-03-23T23:36:07.922Z,2.57
2023-03-23T23:39:20.812Z,2.35
2023-03-23T23:42:32.858Z,2.20
2023-03-23T23:45:57.932Z,2.10
2023-03-23T23:48:57.822Z,2.10
2023-03-23T23:52:09.860Z,2.20
2023-03-23T23:55:09.846Z,2.00
2023-03-23T23:58:22.961Z,2.13
